createdAt,value
2018-01-30T00:00:41.674Z,-76
2018-01-30T00:01:41.517Z,-76
2018-01-30T00:02:41.367Z,-76
2018-01-30T00:03:41.326Z,-76
2018-01-30T00:04:41.560Z,-75
2018-01-30T00:05:41.557Z,-75
2018-01-30T00:06:43.041Z,-74
2018-01-30T00:07:41.515Z,-76
2018-01-30T00:08:42.086Z,-75
2018-01-30T00:09:42.220Z,-75
2018-01-30T00:10:41.796Z,-77
2018-01-30T00:11:41.949Z,-76
2018-01-30T00:12:42.222Z,-77
2018-01-30T00:13:41.395Z,-76
2018-01-30T00:14:41.752Z,-77
2018-01-30T00:15:41.268Z,-75
2018-01-30T00:16:41.926Z,-76
2018-01-30T00:17:41.576Z,-76
2018-01-30T00:18:41.521Z,-77
2018-01-30T00:19:41.848Z,-78
2018-01-30T00:20:41.787Z,-78
2018-01-30T00:21:42.303Z,-78
2018-01-30T00:22:41.563Z,-78
2018-01-30T00:23:41.431Z,-76
2018-01-30T00:24:41.671Z,-76
2018-01-30T00:25:42.604Z,-76
2018-01-30T00:26:42.008Z,-75
2018-01-30T00:27:41.709Z,-78
2018-01-30T00:28:40.918Z,-77
2018-01-30T00:29:41.028Z,-77
2018-01-30T00:30:41.135Z,-77
2018-01-30T00:31:41.553Z,-78
2018-01-30T00:32:41.297Z,-78
2018-01-30T00:33:41.575Z,-76
2018-01-30T00:34:41.456Z,-77
2018-01-30T00:35:41.570Z,-78
2018-01-30T00:36:41.270Z,-78
2018-01-30T00:37:41.481Z,-77
2018-01-30T00:38:41.079Z,-78
2018-01-30T00:39:41.790Z,-77
2018-01-30T00:40:41.554Z,-78
2018-01-30T00:41:41.481Z,-75
2018-01-30T00:42:41.602Z,-77
2018-01-30T00:43:41.394Z,-77
2018-01-30T00:44:41.278Z,-78
2018-01-30T00:45:41.623Z,-75
2018-01-30T00:46:41.523Z,-76
2018-01-30T00:47:41.218Z,-78
2018-01-30T00:48:41.553Z,-75
2018-01-30T00:49:41.574Z,-75
2018-01-30T00:50:41.636Z,-75
2018-01-30T00:51:41.127Z,-75
2018-01-30T00:52:41.915Z,-75
2018-01-30T00:53:41.307Z,-76
2018-01-30T00:54:41.387Z,-77
2018-01-30T00:55:41.694Z,-75
2018-01-30T00:56:41.474Z,-74
2018-01-30T00:57:41.445Z,-76
2018-01-30T00:58:41.713Z,-77
2018-01-30T00:59:41.338Z,-76
2018-01-30T01:00:41.810Z,-77
2018-01-30T01:01:41.904Z,-74
2018-01-30T01:02:41.316Z,-76
2018-01-30T01:03:41.230Z,-76
2018-01-30T01:04:40.939Z,-76
2018-01-30T01:05:41.641Z,-74
2018-01-30T01:06:41.499Z,-73
2018-01-30T01:07:41.444Z,-76
2018-01-30T01:08:41.159Z,-76
2018-01-30T01:09:41.211Z,-76
2018-01-30T01:10:41.936Z,-77
2018-01-30T01:11:41.581Z,-76
2018-01-30T01:12:41.947Z,-76
2018-01-30T01:13:41.640Z,-76
2018-01-30T01:14:42.282Z,-77
2018-01-30T01:15:41.384Z,-77
2018-01-30T01:16:41.879Z,-76
2018-01-30T01:17:41.335Z,-76
2018-01-30T01:18:41.940Z,-75
2018-01-30T01:19:41.422Z,-77
2018-01-30T01:20:41.668Z,-76
2018-01-30T01:21:41.161Z,-76
2018-01-30T01:22:41.994Z,-76
2018-01-30T01:23:42.084Z,-76
2018-01-30T01:24:42.790Z,-77
2018-01-30T01:25:41.989Z,-77
2018-01-30T01:26:41.815Z,-77
2018-01-30T01:27:41.696Z,-77
2018-01-30T01:28:42.142Z,-77
2018-01-30T01:29:42.043Z,-77
2018-01-30T01:30:42.770Z,-77
2018-01-30T01:31:41.685Z,-77
2018-01-30T01:32:41.375Z,-78
2018-01-30T01:33:43.039Z,-77
2018-01-30T01:34:42.476Z,-78
2018-01-30T01:35:42.719Z,-77
2018-01-30T01:36:41.862Z,-78
2018-01-30T01:37:42.290Z,-78
2018-01-30T01:38:41.487Z,-78
2018-01-30T01:39:42.449Z,-78
2018-01-30T01:40:41.261Z,-75
2018-01-30T01:41:43.826Z,-76
2018-01-30T01:42:42.315Z,-76
2018-01-30T01:43:42.249Z,-76
2018-01-30T01:44:41.259Z,-76
2018-01-30T01:45:41.696Z,-78
2018-01-30T01:46:42.311Z,-77
2018-01-30T01:47:43.056Z,-77
2018-01-30T01:48:41.386Z,-77
2018-01-30T01:49:42.405Z,-77
2018-01-30T01:50:42.045Z,-76
2018-01-30T01:51:41.640Z,-77
2018-01-30T01:52:41.669Z,-78
2018-01-30T01:53:41.487Z,-78
2018-01-30T01:54:41.648Z,-76
2018-01-30T01:55:42.517Z,-77
2018-01-30T01:56:42.170Z,-77
2018-01-30T01:57:41.170Z,-77
2018-01-30T01:58:42.425Z,-77
2018-01-30T01:59:41.738Z,-78
2018-01-30T02:00:41.775Z,-75
2018-01-30T02:01:41.590Z,-76
2018-01-30T02:02:42.311Z,-77
2018-01-30T02:03:42.088Z,-76
2018-01-30T02:04:42.452Z,-77
2018-01-30T02:05:42.235Z,-78
2018-01-30T02:06:42.810Z,-78
2018-01-30T02:07:41.194Z,-78
2018-01-30T02:08:42.032Z,-78
2018-01-30T02:09:41.529Z,-78
2018-01-30T02:10:41.666Z,-76
2018-01-30T02:11:42.307Z,-76
2018-01-30T02:12:41.607Z,-76
2018-01-30T02:13:41.910Z,-75
2018-01-30T02:14:41.662Z,-76
2018-01-30T02:15:41.934Z,-76
2018-01-30T02:16:42.368Z,-76
2018-01-30T02:17:41.797Z,-77
2018-01-30T02:18:43.298Z,-77
2018-01-30T02:19:42.201Z,-77
2018-01-30T02:20:42.110Z,-77
2018-01-30T02:21:41.968Z,-77
2018-01-30T02:22:42.047Z,-77
2018-01-30T02:23:42.482Z,-77
2018-01-30T02:24:41.673Z,-77
2018-01-30T02:25:42.497Z,-77
2018-01-30T02:26:41.592Z,-77
2018-01-30T02:27:41.312Z,-77
2018-01-30T02:28:42.356Z,-77
2018-01-30T02:29:41.726Z,-77
2018-01-30T02:30:42.684Z,-75
2018-01-30T02:31:42.485Z,-76
2018-01-30T02:32:41.704Z,-75
2018-01-30T02:33:41.256Z,-75
2018-01-30T02:34:41.791Z,-77
2018-01-30T02:35:41.508Z,-78
2018-01-30T02:36:42.094Z,-78
2018-01-30T02:37:41.428Z,-78
2018-01-30T02:38:41.808Z,-78
2018-01-30T02:39:42.208Z,-78
2018-01-30T02:40:41.610Z,-76
2018-01-30T02:41:41.636Z,-76
2018-01-30T02:42:41.929Z,-77
2018-01-30T02:43:42.112Z,-74
2018-01-30T02:44:42.074Z,-76
2018-01-30T02:45:41.714Z,-77
2018-01-30T02:46:41.561Z,-77
2018-01-30T02:47:41.596Z,-77
2018-01-30T02:48:42.539Z,-77
2018-01-30T02:49:42.304Z,-76
2018-01-30T02:50:41.686Z,-78
2018-01-30T02:51:43.217Z,-78
2018-01-30T02:52:41.861Z,-78
2018-01-30T02:53:42.941Z,-78
2018-01-30T02:54:42.930Z,-78
2018-01-30T02:55:42.039Z,-78
2018-01-30T02:56:41.798Z,-78
2018-01-30T02:57:41.589Z,-78
2018-01-30T02:58:41.899Z,-75
2018-01-30T02:59:41.542Z,-76
2018-01-30T03:00:41.338Z,-76
2018-01-30T03:01:41.852Z,-76
2018-01-30T03:02:42.346Z,-78
2018-01-30T03:03:41.718Z,-78
2018-01-30T03:04:41.646Z,-78
2018-01-30T03:05:42.098Z,-77
2018-01-30T03:06:41.486Z,-76
2018-01-30T03:07:40.833Z,-75
2018-01-30T03:08:40.861Z,-75
2018-01-30T03:09:40.487Z,-77
2018-01-30T03:10:40.651Z,-76
2018-01-30T03:11:40.911Z,-75
2018-01-30T03:12:41.097Z,-76
2018-01-30T03:13:40.945Z,-78
2018-01-30T03:14:40.929Z,-78
2018-01-30T03:15:40.879Z,-76
2018-01-30T03:16:40.726Z,-77
2018-01-30T03:17:41.238Z,-77
2018-01-30T03:18:41.289Z,-74
2018-01-30T03:19:40.815Z,-77
2018-01-30T03:20:41.471Z,-77
2018-01-30T03:21:40.751Z,-77
2018-01-30T03:22:40.632Z,-78
2018-01-30T03:23:40.579Z,-78
2018-01-30T03:24:40.909Z,-77
2018-01-30T03:25:41.109Z,-78
2018-01-30T03:26:40.379Z,-77
2018-01-30T03:27:40.604Z,-75
2018-01-30T03:28:40.971Z,-75
2018-01-30T03:29:41.092Z,-76
2018-01-30T03:30:40.609Z,-76
2018-01-30T03:31:40.706Z,-76
2018-01-30T03:32:40.146Z,-77
2018-01-30T03:33:40.381Z,-78
2018-01-30T03:34:40.203Z,-77
2018-01-30T03:35:40.340Z,-75
2018-01-30T03:36:40.265Z,-77
2018-01-30T03:37:40.460Z,-77
2018-01-30T03:38:40.260Z,-77
2018-01-30T03:39:40.557Z,-77
2018-01-30T03:40:40.529Z,-75
2018-01-30T03:41:40.388Z,-76
2018-01-30T03:42:40.170Z,-77
2018-01-30T03:43:40.292Z,-76
2018-01-30T03:44:40.308Z,-77
2018-01-30T03:45:40.305Z,-77
2018-01-30T03:46:40.419Z,-76
2018-01-30T03:47:40.258Z,-75
2018-01-30T03:48:40.420Z,-77
2018-01-30T03:49:40.683Z,-77
2018-01-30T03:50:40.257Z,-77
2018-01-30T03:51:40.301Z,-78
2018-01-30T03:52:40.328Z,-75
2018-01-30T03:53:40.145Z,-75
2018-01-30T03:54:40.233Z,-74
2018-01-30T03:55:40.030Z,-77
2018-01-30T03:56:40.515Z,-76
2018-01-30T03:57:40.453Z,-75
2018-01-30T03:58:40.489Z,-75
2018-01-30T03:59:40.250Z,-78
2018-01-30T04:00:40.440Z,-77
2018-01-30T04:01:40.198Z,-77
2018-01-30T04:02:40.452Z,-76
2018-01-30T04:03:40.519Z,-77
2018-01-30T04:04:40.431Z,-78
2018-01-30T04:05:40.290Z,-75
2018-01-30T04:06:40.309Z,-75
2018-01-30T04:07:40.294Z,-77
2018-01-30T04:08:40.598Z,-77
2018-01-30T04:09:40.330Z,-78
2018-01-30T04:10:40.345Z,-77
2018-01-30T04:11:41.244Z,-78
2018-01-30T04:12:40.593Z,-77
2018-01-30T04:13:40.492Z,-77
2018-01-30T04:14:40.639Z,-76
2018-01-30T04:15:40.339Z,-76
2018-01-30T04:16:40.309Z,-75
2018-01-30T04:17:40.531Z,-77
2018-01-30T04:18:40.528Z,-78
2018-01-30T04:19:40.197Z,-77
2018-01-30T04:20:40.497Z,-77
2018-01-30T04:21:40.567Z,-77
2018-01-30T04:22:40.222Z,-76
2018-01-30T04:23:40.462Z,-77
2018-01-30T04:24:40.377Z,-73
2018-01-30T04:25:40.187Z,-73
2018-01-30T04:26:40.260Z,-74
2018-01-30T04:27:40.539Z,-74
2018-01-30T04:28:40.517Z,-73
2018-01-30T04:29:40.576Z,-74
2018-01-30T04:30:40.569Z,-74
2018-01-30T04:31:40.575Z,-74
2018-01-30T04:32:40.548Z,-74
2018-01-30T04:33:40.196Z,-74
2018-01-30T04:34:40.524Z,-74
2018-01-30T04:35:40.248Z,-73
2018-01-30T04:36:40.211Z,-73
2018-01-30T04:37:40.580Z,-74
2018-01-30T04:38:40.253Z,-74
2018-01-30T04:39:40.582Z,-74
2018-01-30T04:40:40.289Z,-74
2018-01-30T04:41:40.449Z,-74
2018-01-30T04:42:40.732Z,-74
2018-01-30T04:43:40.688Z,-74
2018-01-30T04:44:40.647Z,-74
2018-01-30T04:45:40.314Z,-74
2018-01-30T04:46:40.578Z,-74
2018-01-30T04:47:40.388Z,-74
2018-01-30T04:48:40.294Z,-74
2018-01-30T04:49:40.278Z,-73
2018-01-30T04:50:40.705Z,-74
2018-01-30T04:51:40.808Z,-74
2018-01-30T04:52:40.338Z,-74
2018-01-30T04:53:40.271Z,-74
2018-01-30T04:54:40.218Z,-74
2018-01-30T04:55:40.286Z,-74
2018-01-30T04:56:40.609Z,-77
2018-01-30T04:57:40.622Z,-77
2018-01-30T04:58:40.561Z,-76
2018-01-30T04:59:40.528Z,-76
2018-01-30T05:00:40.516Z,-74
2018-01-30T05:01:40.443Z,-76
2018-01-30T05:02:40.223Z,-75
2018-01-30T05:03:40.261Z,-75
2018-01-30T05:04:40.609Z,-74
2018-01-30T05:05:40.384Z,-76
2018-01-30T05:06:40.567Z,-76
2018-01-30T05:07:40.704Z,-77
2018-01-30T05:08:40.351Z,-76
2018-01-30T05:09:41.430Z,-77
2018-01-30T05:10:40.645Z,-77
2018-01-30T05:11:40.672Z,-76
2018-01-30T05:12:40.449Z,-75
2018-01-30T05:13:40.431Z,-74
2018-01-30T05:14:40.551Z,-75
2018-01-30T05:15:40.954Z,-75
2018-01-30T05:16:40.526Z,-75
2018-01-30T05:17:40.522Z,-77
2018-01-30T05:18:40.528Z,-78
2018-01-30T05:19:40.488Z,-77
2018-01-30T05:20:40.379Z,-78
2018-01-30T05:21:40.512Z,-77
2018-01-30T05:22:40.425Z,-75
2018-01-30T05:23:40.698Z,-75
2018-01-30T05:24:40.235Z,-75
2018-01-30T05:25:40.588Z,-76
2018-01-30T05:26:40.547Z,-78
2018-01-30T05:27:40.311Z,-77
2018-01-30T05:28:40.696Z,-77
2018-01-30T05:29:40.533Z,-78
2018-01-30T05:30:40.597Z,-78
2018-01-30T05:31:40.734Z,-75
2018-01-30T05:32:40.546Z,-76
2018-01-30T05:33:40.585Z,-76
2018-01-30T05:34:40.602Z,-76
2018-01-30T05:35:40.696Z,-74
2018-01-30T05:36:40.253Z,-74
2018-01-30T05:39:51.936Z,-75
2018-01-30T05:40:40.856Z,-74
2018-01-30T05:41:40.833Z,-75
2018-01-30T05:42:41.026Z,-74
2018-01-30T05:43:41.179Z,-74
2018-01-30T05:44:40.919Z,-74
2018-01-30T05:45:41.225Z,-74
2018-01-30T05:46:40.845Z,-74
2018-01-30T05:47:40.860Z,-74
2018-01-30T05:48:40.970Z,-74
2018-01-30T05:49:41.064Z,-74
2018-01-30T05:50:40.929Z,-74
2018-01-30T05:51:41.022Z,-74
2018-01-30T05:52:41.043Z,-74
2018-01-30T05:53:41.142Z,-74
2018-01-30T05:54:41.159Z,-74
2018-01-30T05:55:40.913Z,-74
2018-01-30T05:56:41.081Z,-74
2018-01-30T05:57:42.163Z,-74
2018-01-30T05:58:41.193Z,-74
2018-01-30T05:59:40.846Z,-74
2018-01-30T06:00:41.030Z,-74
2018-01-30T06:01:41.249Z,-74
2018-01-30T06:02:40.933Z,-74
2018-01-30T06:03:40.925Z,-74
2018-01-30T06:04:40.910Z,-74
2018-01-30T06:05:41.055Z,-74
2018-01-30T06:06:40.988Z,-74
2018-01-30T06:08:41.248Z,-77
2018-01-30T06:09:41.438Z,-77
2018-01-30T06:10:41.190Z,-77
2018-01-30T06:11:41.210Z,-77
2018-01-30T06:12:41.354Z,-76
2018-01-30T06:13:41.237Z,-76
2018-01-30T06:14:41.289Z,-77
2018-01-30T06:15:41.112Z,-76
2018-01-30T06:16:41.019Z,-76
2018-01-30T06:17:40.954Z,-76
2018-01-30T06:18:41.058Z,-77
2018-01-30T06:19:40.993Z,-76
2018-01-30T06:20:41.273Z,-74
2018-01-30T06:21:41.064Z,-75
2018-01-30T06:22:41.057Z,-77
2018-01-30T06:23:41.124Z,-75
2018-01-30T06:24:41.091Z,-77
2018-01-30T06:25:40.966Z,-77
2018-01-30T06:26:41.235Z,-77
2018-01-30T06:27:41.254Z,-77
2018-01-30T06:28:41.105Z,-77
2018-01-30T06:29:41.084Z,-75
2018-01-30T06:30:41.265Z,-76
2018-01-30T06:31:41.221Z,-76
2018-01-30T06:32:40.826Z,-74
2018-01-30T06:33:40.945Z,-75
2018-01-30T06:34:41.194Z,-75
2018-01-30T06:35:41.119Z,-76
2018-01-30T06:36:41.197Z,-77
2018-01-30T06:37:41.294Z,-76
2018-01-30T06:38:40.898Z,-77
2018-01-30T06:39:40.862Z,-75
2018-01-30T06:40:41.496Z,-75
2018-01-30T06:41:41.242Z,-77
2018-01-30T06:42:41.180Z,-75
2018-01-30T06:43:41.241Z,-75
2018-01-30T06:44:41.227Z,-75
2018-01-30T06:45:41.347Z,-75
2018-01-30T06:46:41.008Z,-74
2018-01-30T06:47:41.162Z,-75
2018-01-30T06:48:40.881Z,-75
2018-01-30T06:49:41.204Z,-74
2018-01-30T06:50:40.995Z,-75
2018-01-30T06:51:40.937Z,-75
2018-01-30T06:52:40.964Z,-77
2018-01-30T06:53:41.062Z,-75
2018-01-30T06:54:41.116Z,-75
2018-01-30T06:55:41.201Z,-76
2018-01-30T06:56:41.058Z,-77
2018-01-30T06:57:40.826Z,-77
2018-01-30T06:58:41.248Z,-77
2018-01-30T06:59:41.178Z,-76
2018-01-30T07:00:41.370Z,-76
2018-01-30T07:01:41.124Z,-74
2018-01-30T07:02:41.053Z,-76
2018-01-30T07:03:40.850Z,-77
2018-01-30T07:04:41.214Z,-77
2018-01-30T07:05:41.139Z,-77
2018-01-30T07:06:41.263Z,-76
2018-01-30T07:07:40.893Z,-74
2018-01-30T07:08:41.174Z,-77
2018-01-30T07:09:41.315Z,-74
2018-01-30T07:10:41.200Z,-77
2018-01-30T07:11:41.149Z,-77
2018-01-30T07:12:41.122Z,-77
2018-01-30T07:13:41.076Z,-76
2018-01-30T07:14:41.000Z,-76
2018-01-30T07:15:40.992Z,-76
2018-01-30T07:16:40.934Z,-74
2018-01-30T07:17:41.214Z,-74
2018-01-30T07:18:41.208Z,-75
2018-01-30T07:19:42.034Z,-75
2018-01-30T07:20:40.994Z,-75
2018-01-30T07:21:41.000Z,-74
2018-01-30T07:22:41.225Z,-76
2018-01-30T07:23:40.948Z,-77
2018-01-30T07:24:41.057Z,-76
2018-01-30T07:25:41.210Z,-74
2018-01-30T07:26:41.265Z,-76
2018-01-30T07:27:42.202Z,-76
2018-01-30T07:28:40.979Z,-76
2018-01-30T07:29:40.961Z,-74
2018-01-30T07:30:41.179Z,-75
2018-01-30T07:31:40.993Z,-76
2018-01-30T07:32:41.100Z,-74
2018-01-30T07:33:40.969Z,-77
2018-01-30T07:34:41.270Z,-77
2018-01-30T07:35:41.062Z,-76
2018-01-30T07:36:41.025Z,-76
2018-01-30T07:37:41.010Z,-75
2018-01-30T07:38:41.255Z,-77
2018-01-30T07:39:41.139Z,-76
2018-01-30T07:40:41.131Z,-76
2018-01-30T07:41:41.016Z,-74
2018-01-30T07:42:41.286Z,-77
2018-01-30T07:43:41.341Z,-76
2018-01-30T07:44:41.245Z,-77
2018-01-30T07:45:41.109Z,-74
2018-01-30T07:46:40.967Z,-77
2018-01-30T07:47:41.041Z,-78
2018-01-30T07:48:41.271Z,-76
2018-01-30T07:49:41.276Z,-74
2018-01-30T07:50:41.131Z,-77
2018-01-30T07:51:41.852Z,-77
2018-01-30T07:52:41.240Z,-77
2018-01-30T07:53:41.180Z,-77
2018-01-30T07:54:41.508Z,-76
2018-01-30T07:55:41.287Z,-78
2018-01-30T07:56:41.383Z,-78
2018-01-30T07:57:41.467Z,-77
2018-01-30T07:58:41.342Z,-76
2018-01-30T07:59:41.391Z,-78
2018-01-30T08:00:41.295Z,-77
2018-01-30T08:01:41.359Z,-76
2018-01-30T08:02:41.256Z,-77
2018-01-30T08:03:41.063Z,-77
2018-01-30T08:04:41.159Z,-77
2018-01-30T08:05:41.318Z,-77
2018-01-30T08:06:41.348Z,-77
2018-01-30T08:07:41.790Z,-77
2018-01-30T08:08:41.155Z,-74
2018-01-30T08:09:41.331Z,-75
2018-01-30T08:10:41.416Z,-75
2018-01-30T08:11:41.330Z,-75
2018-01-30T08:12:42.169Z,-74
2018-01-30T08:13:41.152Z,-77
2018-01-30T08:14:41.339Z,-77
2018-01-30T08:15:41.409Z,-76
2018-01-30T08:16:41.479Z,-76
2018-01-30T08:17:41.115Z,-76
2018-01-30T08:18:41.343Z,-76
2018-01-30T08:19:41.461Z,-77
2018-01-30T08:20:41.320Z,-78
2018-01-30T08:21:41.263Z,-78
2018-01-30T08:22:41.404Z,-78
2018-01-30T08:23:40.980Z,-77
2018-01-30T08:24:41.342Z,-77
2018-01-30T08:25:41.287Z,-78
2018-01-30T08:26:41.932Z,-78
2018-01-30T08:27:41.574Z,-77
2018-01-30T08:28:41.295Z,-74
2018-01-30T08:29:41.223Z,-77
2018-01-30T08:30:41.247Z,-78
2018-01-30T08:31:41.020Z,-78
2018-01-30T08:32:41.361Z,-77
2018-01-30T08:33:41.393Z,-77
2018-01-30T08:34:41.324Z,-78
2018-01-30T08:35:41.275Z,-75
2018-01-30T08:36:41.285Z,-78
2018-01-30T08:37:41.384Z,-77
2018-01-30T08:38:40.986Z,-78
2018-01-30T08:39:41.083Z,-77
2018-01-30T08:40:41.373Z,-77
2018-01-30T08:41:40.943Z,-74
2018-01-30T08:42:41.444Z,-77
2018-01-30T08:43:41.222Z,-77
2018-01-30T08:44:40.918Z,-77
2018-01-30T08:45:41.098Z,-77
2018-01-30T08:46:41.226Z,-77
2018-01-30T08:47:41.030Z,-75
2018-01-30T08:48:41.102Z,-75
2018-01-30T08:49:41.043Z,-74
2018-01-30T08:50:41.096Z,-75
2018-01-30T08:51:41.159Z,-76
2018-01-30T08:52:41.018Z,-76
2018-01-30T08:53:40.954Z,-74
2018-01-30T08:54:41.054Z,-77
2018-01-30T08:55:41.334Z,-74
2018-01-30T08:56:41.306Z,-77
2018-01-30T08:57:41.302Z,-76
2018-01-30T08:58:40.847Z,-77
2018-01-30T08:59:40.895Z,-76
2018-01-30T09:00:41.221Z,-77
2018-01-30T09:01:41.515Z,-77
2018-01-30T09:02:41.044Z,-78
2018-01-30T09:03:41.004Z,-75
2018-01-30T09:04:41.060Z,-78
2018-01-30T09:05:41.224Z,-78
2018-01-30T09:06:41.331Z,-76
2018-01-30T09:07:41.852Z,-76
2018-01-30T09:08:41.360Z,-79
2018-01-30T09:09:41.015Z,-78
2018-01-30T09:10:41.194Z,-78
2018-01-30T09:11:40.321Z,-78
2018-01-30T09:12:40.134Z,-78
2018-01-30T09:13:40.619Z,-78
2018-01-30T09:14:40.109Z,-77
2018-01-30T09:15:40.122Z,-78
2018-01-30T09:16:40.019Z,-76
2018-01-30T09:17:40.246Z,-76
2018-01-30T09:18:40.481Z,-77
2018-01-30T09:19:40.221Z,-78
2018-01-30T09:20:40.230Z,-77
2018-01-30T09:21:41.065Z,-77
2018-01-30T09:22:40.316Z,-78
2018-01-30T09:23:40.268Z,-78
2018-01-30T09:24:40.256Z,-77
2018-01-30T09:25:40.429Z,-78
2018-01-30T09:26:40.455Z,-77
2018-01-30T09:27:40.250Z,-77
2018-01-30T09:28:41.191Z,-78
2018-01-30T09:29:41.698Z,-76
2018-01-30T09:30:40.152Z,-77
2018-01-30T09:31:40.175Z,-77
2018-01-30T09:32:41.070Z,-75
2018-01-30T09:33:40.495Z,-75
2018-01-30T09:34:40.334Z,-76
2018-01-30T09:35:40.168Z,-76
2018-01-30T09:36:40.481Z,-75
2018-01-30T09:37:40.586Z,-76
2018-01-30T09:38:40.178Z,-75
2018-01-30T09:39:40.261Z,-75
2018-01-30T09:40:40.529Z,-75
2018-01-30T09:41:40.550Z,-75
2018-01-30T09:42:40.561Z,-75
2018-01-30T09:43:40.419Z,-75
2018-01-30T09:44:40.586Z,-76
2018-01-30T09:45:40.567Z,-76
2018-01-30T09:46:40.572Z,-75
2018-01-30T09:47:40.319Z,-75
2018-01-30T09:48:40.410Z,-77
2018-01-30T09:49:40.605Z,-75
2018-01-30T09:50:41.030Z,-75
2018-01-30T09:51:40.594Z,-77
2018-01-30T09:52:40.536Z,-76
2018-01-30T09:53:40.504Z,-75
2018-01-30T09:54:40.640Z,-75
2018-01-30T09:55:40.580Z,-78
2018-01-30T09:56:40.254Z,-78
2018-01-30T09:57:40.199Z,-78
2018-01-30T09:58:40.576Z,-76
2018-01-30T09:59:40.543Z,-78
2018-01-30T10:00:41.893Z,-76
2018-01-30T10:01:40.604Z,-78
2018-01-30T10:02:40.466Z,-77
2018-01-30T10:03:41.065Z,-77
2018-01-30T10:04:40.531Z,-78
2018-01-30T10:05:40.146Z,-75
2018-01-30T10:06:40.576Z,-75
2018-01-30T10:07:40.222Z,-78
2018-01-30T10:08:40.575Z,-78
2018-01-30T10:09:40.215Z,-78
2018-01-30T10:10:40.219Z,-78
2018-01-30T10:11:40.740Z,-77
2018-01-30T10:12:40.491Z,-78
2018-01-30T10:13:40.362Z,-77
2018-01-30T10:14:40.986Z,-78
2018-01-30T10:15:40.669Z,-77
2018-01-30T10:16:40.690Z,-77
2018-01-30T10:17:40.371Z,-78
2018-01-30T10:18:40.743Z,-78
2018-01-30T10:19:41.028Z,-77
2018-01-30T10:20:41.034Z,-76
2018-01-30T10:21:40.681Z,-78
2018-01-30T10:22:40.366Z,-77
2018-01-30T10:23:40.876Z,-78
2018-01-30T10:24:40.419Z,-77
2018-01-30T10:25:40.837Z,-78
2018-01-30T10:26:40.333Z,-78
2018-01-30T10:27:40.677Z,-78
2018-01-30T10:28:42.244Z,-78
2018-01-30T10:29:43.015Z,-78
2018-01-30T10:30:43.051Z,-78
2018-01-30T10:31:43.685Z,-78
2018-01-30T10:32:42.810Z,-77
2018-01-30T10:33:40.777Z,-78
2018-01-30T10:34:41.654Z,-77
2018-01-30T10:35:40.685Z,-77
2018-01-30T10:36:41.831Z,-76
2018-01-30T10:37:41.509Z,-77
2018-01-30T10:38:41.296Z,-75
2018-01-30T10:39:42.275Z,-78
2018-01-30T10:40:40.709Z,-79
2018-01-30T10:41:42.106Z,-78
2018-01-30T10:42:42.118Z,-78
2018-01-30T10:43:41.142Z,-78
2018-01-30T10:44:41.527Z,-78
2018-01-30T10:45:42.362Z,-78
2018-01-30T10:46:40.833Z,-78
2018-01-30T10:47:42.120Z,-77
2018-01-30T10:48:41.402Z,-78
2018-01-30T10:49:41.566Z,-78
2018-01-30T10:50:41.611Z,-78
2018-01-30T10:51:41.856Z,-78
2018-01-30T10:52:41.876Z,-78
2018-01-30T10:53:40.959Z,-75
2018-01-30T10:54:41.113Z,-78
2018-01-30T10:55:42.135Z,-78
2018-01-30T10:56:42.284Z,-78
2018-01-30T10:57:42.973Z,-78
2018-01-30T10:58:41.575Z,-78
2018-01-30T10:59:42.403Z,-77
2018-01-30T11:00:40.925Z,-78
2018-01-30T11:01:42.594Z,-78
2018-01-30T11:02:40.945Z,-79
2018-01-30T11:03:41.021Z,-78
2018-01-30T11:04:42.950Z,-77
2018-01-30T11:05:42.507Z,-76
2018-01-30T11:06:41.502Z,-77
2018-01-30T11:07:40.974Z,-79
2018-01-30T11:08:41.200Z,-79
2018-01-30T11:09:42.390Z,-79
2018-01-30T11:10:40.946Z,-79
2018-01-30T11:11:42.634Z,-79
2018-01-30T11:12:41.762Z,-78
2018-01-30T11:13:41.112Z,-77
2018-01-30T11:14:41.271Z,-77
2018-01-30T11:15:41.233Z,-76
2018-01-30T11:16:42.240Z,-76
2018-01-30T11:17:40.995Z,-79
2018-01-30T11:18:41.401Z,-79
2018-01-30T11:19:41.078Z,-77
2018-01-30T11:20:40.760Z,-77
2018-01-30T11:21:40.794Z,-79
2018-01-30T11:22:41.387Z,-78
2018-01-30T11:23:41.103Z,-79
2018-01-30T11:24:41.113Z,-78
2018-01-30T11:25:41.205Z,-79
2018-01-30T11:26:41.058Z,-79
2018-01-30T11:27:41.082Z,-77
2018-01-30T11:28:40.824Z,-78
2018-01-30T11:29:40.787Z,-78
2018-01-30T11:30:40.612Z,-78
2018-01-30T11:31:41.042Z,-76
2018-01-30T11:32:40.965Z,-79
2018-01-30T11:33:40.777Z,-78
2018-01-30T11:34:40.884Z,-79
2018-01-30T11:35:41.046Z,-79
2018-01-30T11:36:40.809Z,-77
2018-01-30T11:37:41.019Z,-77
2018-01-30T11:38:40.923Z,-79
2018-01-30T11:39:40.931Z,-79
2018-01-30T11:40:41.028Z,-77
2018-01-30T11:41:41.573Z,-79
2018-01-30T11:42:40.837Z,-79
2018-01-30T11:43:40.498Z,-78
2018-01-30T11:44:40.768Z,-78
2018-01-30T11:45:40.535Z,-77
2018-01-30T11:46:40.727Z,-78
2018-01-30T11:47:40.480Z,-77
2018-01-30T11:48:40.756Z,-76
2018-01-30T11:49:40.754Z,-78
2018-01-30T11:50:40.802Z,-76
2018-01-30T11:51:40.284Z,-75
2018-01-30T11:52:40.251Z,-78
2018-01-30T11:53:40.647Z,-77
2018-01-30T11:54:40.553Z,-77
2018-01-30T11:55:40.433Z,-78
2018-01-30T11:56:40.450Z,-78
2018-01-30T11:57:40.456Z,-77
2018-01-30T11:58:40.653Z,-78
2018-01-30T11:59:41.119Z,-78
2018-01-30T12:00:40.740Z,-76
2018-01-30T12:01:40.683Z,-75
2018-01-30T12:02:40.822Z,-79
2018-01-30T12:03:40.766Z,-78
2018-01-30T12:04:40.998Z,-78
2018-01-30T12:05:41.492Z,-77
2018-01-30T12:06:40.669Z,-79
2018-01-30T12:07:40.516Z,-80
2018-01-30T12:08:40.616Z,-79
2018-01-30T12:09:40.439Z,-77
2018-01-30T12:10:40.783Z,-77
2018-01-30T12:11:40.756Z,-79
2018-01-30T12:12:41.054Z,-80
2018-01-30T12:13:40.933Z,-80
2018-01-30T12:14:40.965Z,-79
2018-01-30T12:15:40.749Z,-79
2018-01-30T12:16:40.575Z,-78
2018-01-30T12:17:40.666Z,-80
2018-01-30T12:18:40.708Z,-79
2018-01-30T12:19:40.669Z,-78
2018-01-30T12:20:40.697Z,-77
2018-01-30T12:21:40.739Z,-78
2018-01-30T12:22:40.632Z,-80
2018-01-30T12:23:40.871Z,-80
2018-01-30T12:24:40.944Z,-80
2018-01-30T12:25:40.905Z,-80
2018-01-30T12:26:40.703Z,-80
2018-01-30T12:27:40.815Z,-79
2018-01-30T12:28:40.868Z,-79
2018-01-30T12:29:40.704Z,-80
2018-01-30T12:30:40.841Z,-77
2018-01-30T12:31:40.610Z,-78
2018-01-30T12:32:40.932Z,-80
2018-01-30T12:33:41.307Z,-79
2018-01-30T12:34:41.024Z,-79
2018-01-30T12:35:41.016Z,-80
2018-01-30T12:36:41.159Z,-80
2018-01-30T12:37:41.192Z,-80
2018-01-30T12:38:40.574Z,-79
2018-01-30T12:39:40.942Z,-79
2018-01-30T12:40:40.650Z,-80
2018-01-30T12:41:41.109Z,-80
2018-01-30T12:42:41.091Z,-80
2018-01-30T12:43:40.875Z,-79
2018-01-30T12:44:41.027Z,-80
2018-01-30T12:45:40.910Z,-78
2018-01-30T12:46:40.941Z,-78
2018-01-30T12:47:41.090Z,-79
2018-01-30T12:48:40.746Z,-80
2018-01-30T12:49:40.731Z,-78
2018-01-30T12:50:40.942Z,-78
2018-01-30T12:51:40.785Z,-80
2018-01-30T12:52:40.648Z,-80
2018-01-30T12:53:41.086Z,-80
2018-01-30T12:54:40.806Z,-80
2018-01-30T12:55:40.802Z,-80
2018-01-30T12:56:40.967Z,-80
2018-01-30T12:57:40.588Z,-80
2018-01-30T12:58:40.744Z,-80
2018-01-30T12:59:40.971Z,-79
2018-01-30T13:00:40.812Z,-80
2018-01-30T13:01:41.615Z,-79
2018-01-30T13:02:40.627Z,-80
2018-01-30T13:03:42.245Z,-80
2018-01-30T13:04:41.006Z,-79
2018-01-30T13:05:40.543Z,-80
2018-01-30T13:06:40.711Z,-79
2018-01-30T13:07:40.577Z,-77
2018-01-30T13:08:40.975Z,-77
2018-01-30T13:09:41.003Z,-79
2018-01-30T13:10:40.781Z,-77
2018-01-30T13:11:40.588Z,-78
2018-01-30T13:12:41.076Z,-78
2018-01-30T13:13:41.095Z,-79
2018-01-30T13:14:40.820Z,-77
2018-01-30T13:15:41.247Z,-78
2018-01-30T13:16:41.126Z,-79
2018-01-30T13:17:41.051Z,-78
2018-01-30T13:18:41.322Z,-79
2018-01-30T13:19:41.089Z,-80
2018-01-30T13:20:41.992Z,-79
2018-01-30T13:21:41.008Z,-80
2018-01-30T13:22:41.145Z,-79
2018-01-30T13:23:41.014Z,-80
2018-01-30T13:24:41.020Z,-80
2018-01-30T13:25:41.079Z,-80
2018-01-30T13:26:40.793Z,-80
2018-01-30T13:27:41.159Z,-78
2018-01-30T13:28:41.029Z,-80
2018-01-30T13:29:41.064Z,-80
2018-01-30T13:30:41.813Z,-80
2018-01-30T13:31:40.851Z,-80
2018-01-30T13:32:41.232Z,-80
2018-01-30T13:33:41.641Z,-80
2018-01-30T13:34:41.228Z,-80
2018-01-30T13:35:40.892Z,-78
2018-01-30T13:36:41.258Z,-79
2018-01-30T13:37:41.124Z,-79
2018-01-30T13:38:41.206Z,-78
2018-01-30T13:39:41.159Z,-77
2018-01-30T13:40:41.183Z,-80
2018-01-30T13:41:41.600Z,-79
2018-01-30T13:42:40.963Z,-80
2018-01-30T13:43:41.232Z,-79
2018-01-30T13:44:41.006Z,-79
2018-01-30T13:45:41.023Z,-80
2018-01-30T13:46:41.158Z,-80
2018-01-30T13:47:41.014Z,-79
2018-01-30T13:48:40.999Z,-80
2018-01-30T13:49:40.811Z,-78